SHMÚ vydal hydrologické výstrahy na   Povodeň z trvalého dažďa Display warnings

METAR

Aeronautical MET Report METAR

METAR description (Slovak)

25.05.2019 - 13:00 UTC

METAR LZIB 251300Z 28005KT 220V320 CAVOK 24/08 Q1013 NOSIG=
METAR LZKZ 251300Z VRB01KT CAVOK 22/12 Q1012 NOSIG=
METAR LZPP 251300Z 35006KT 320V040 CAVOK 23/08 Q1013=
METAR LZSL 251300Z 13006KT 080V220 9999 FEW053 24/06 Q1012=
METAR LZTT 251300Z 09003KT 060V150 9999 SCT060 19/08 Q1013 NOSIG=
METAR LZZI 251300Z VRB02KT 9999 SCT058 22/08 Q1013=

25.05.2019 - 12:30 UTC

METAR LZIB 251230Z VRB05KT CAVOK 24/09 Q1014 NOSIG=
METAR LZKZ 251230Z VRB01KT 9999 FEW046 BKN095 21/11 Q1013 NOSIG=
METAR LZPP 251230Z 36006KT 330V030 CAVOK 23/09 Q1013=
METAR LZSL 251230Z 18006KT 120V230 9999 FEW050 24/06 Q1012=
METAR LZTT 251230Z 09005KT 040V130 9999 SCT060 19/08 Q1013 NOSIG=
METAR LZZI 251230Z VRB02KT 9999 SCT053 22/08 Q1013=

25.05.2019 - 13:00 UTC

METAR LZMC 251300Z 27004KT CAVOK 24/05 Q1014=
METAR LZPW 251300Z 36004KT CAVOK 22/09 Q1012=

 

 

skok na menu ↑


skok na začiatok stránky ↑